Upstream stations:
Downstream station:
SHEF ID: BRIO2 Canadian River at Bridgeport, OK
STATION TYPE:
Regulating: Stage = 15.00, Flow = 8545
STAGE RIV-FLOW
ft cfs
Ccp-Rev Ccp-Rev
(US/Central)
05/26 00:00 12.57 2146
05/26 01:00 12.54 2103
05/26 02:00 12.53 2089
05/26 03:00 12.50 2046
05/26 04:00 12.47 2004
05/26 05:00 12.44 1963
05/26 06:00 12.54 2103
05/26 07:00 13.13 3073
05/26 08:00 13.13 3073
05/26 09:00 13.13 3073
05/26 10:00 13.01 2855
05/26 11:00 12.95 2750
05/26 12:00 12.92 2699
05/26 13:00 12.90 2665
05/26 14:00 12.85 2581
05/26 15:00 12.84 2565
05/26 16:00 12.83 2548
05/26 17:00 12.83 2548
05/26 18:00 12.82 2532
05/26 19:00 12.80 2500
05/26 20:00 12.71 2357
05/26 21:00 12.66 2280
05/26 22:00 10.45 361
05/26 23:00 ---- ----